createdAt,value
2022-12-27T00:00:26.429Z,6.42
2022-12-27T00:02:55.115Z,6.44
2022-12-27T00:05:23.579Z,6.45
2022-12-27T00:07:52.422Z,6.41
2022-12-27T00:10:21.232Z,6.40
2022-12-27T00:12:49.835Z,6.36
2022-12-27T00:15:20.270Z,6.35
2022-12-27T00:17:49.018Z,6.32
2022-12-27T00:20:18.198Z,6.38
2022-12-27T00:22:46.933Z,6.50
2022-12-27T00:25:15.861Z,6.59
2022-12-27T00:27:44.523Z,6.62
2022-12-27T00:30:14.182Z,6.74
2022-12-27T00:32:44.165Z,6.72
2022-12-27T00:35:12.627Z,6.70
2022-12-27T00:37:41.153Z,6.66
2022-12-27T00:40:11.991Z,6.58
2022-12-27T00:42:41.021Z,6.52
2022-12-27T00:45:10.928Z,6.47
2022-12-27T00:47:40.402Z,6.42
2022-12-27T00:50:11.429Z,6.37
2022-12-27T00:52:40.305Z,6.32
2022-12-27T00:55:10.137Z,6.27
2022-12-27T00:57:38.828Z,6.26
2022-12-27T01:00:10.606Z,6.29
2022-12-27T01:02:39.364Z,6.33
2022-12-27T01:05:08.634Z,6.35
2022-12-27T01:07:39.188Z,6.27
2022-12-27T01:10:08.565Z,6.30
2022-12-27T01:12:38.044Z,6.35
2022-12-27T01:15:08.976Z,6.38
2022-12-27T01:17:37.614Z,6.41
2022-12-27T01:20:07.998Z,6.34
2022-12-27T01:22:36.598Z,6.30
2022-12-27T01:25:08.282Z,6.31
2022-12-27T01:27:37.144Z,6.37
2022-12-27T01:30:06.133Z,6.34
2022-12-27T01:32:35.432Z,6.37
2022-12-27T01:35:03.968Z,6.38
2022-12-27T01:37:34.092Z,6.37
2022-12-27T01:40:02.859Z,6.34
2022-12-27T01:42:50.436Z,6.37
2022-12-27T01:45:20.927Z,6.41
2022-12-27T01:47:57.363Z,6.40
2022-12-27T01:50:31.759Z,6.41
2022-12-27T01:53:08.068Z,6.39
2022-12-27T01:55:43.979Z,6.36
2022-12-27T01:58:17.921Z,6.35
2022-12-27T02:00:49.295Z,6.37
2022-12-27T02:03:23.531Z,6.41
2022-12-27T02:05:53.057Z,6.40
2022-12-27T02:08:39.618Z,6.52
2022-12-27T02:11:10.269Z,6.59
2022-12-27T02:13:45.039Z,6.65
2022-12-27T02:16:15.929Z,6.70
2022-12-27T02:18:45.060Z,6.75
2022-12-27T02:21:42.281Z,6.79
2022-12-27T02:24:33.375Z,6.77
2022-12-27T02:27:06.252Z,6.85
2022-12-27T02:30:00.164Z,6.90
2022-12-27T02:32:35.245Z,6.95
2022-12-27T02:35:16.388Z,7.10
2022-12-27T02:37:50.502Z,7.24
2022-12-27T02:40:47.408Z,7.39
2022-12-27T02:43:33.903Z,7.47
2022-12-27T02:46:28.051Z,7.54
2022-12-27T02:49:15.452Z,7.58
2022-12-27T02:52:20.644Z,7.48
2022-12-27T02:55:20.597Z,7.42
2022-12-27T02:57:57.691Z,7.41
2022-12-27T03:00:45.027Z,7.38
2022-12-27T03:03:44.668Z,7.34
2022-12-27T03:06:43.088Z,7.34
2022-12-27T03:09:50.992Z,7.32
2022-12-27T03:12:44.112Z,7.30
2022-12-27T03:15:53.662Z,7.29
2022-12-27T03:18:34.786Z,7.28
2022-12-27T03:21:25.419Z,7.29
2022-12-27T03:24:14.924Z,7.30
2022-12-27T03:26:51.352Z,7.29
2022-12-27T03:29:41.506Z,7.30
2022-12-27T03:32:31.270Z,7.31
2022-12-27T03:35:09.896Z,7.28
2022-12-27T03:37:59.587Z,7.24
2022-12-27T03:40:39.092Z,7.22
2022-12-27T03:43:12.909Z,7.22
2022-12-27T03:46:13.187Z,7.20
2022-12-27T03:48:59.027Z,7.20
2022-12-27T03:51:33.946Z,7.13
2022-12-27T03:54:09.753Z,7.15
2022-12-27T03:56:39.280Z,7.17
2022-12-27T03:59:10.274Z,7.15
2022-12-27T04:01:39.664Z,7.14
2022-12-27T04:04:08.468Z,7.16
2022-12-27T04:06:38.693Z,7.15
2022-12-27T04:09:24.670Z,7.14
2022-12-27T04:12:10.776Z,7.11
2022-12-27T04:15:00.446Z,7.11
2022-12-27T04:17:46.834Z,7.10
2022-12-27T04:20:33.130Z,7.10
2022-12-27T04:23:20.475Z,7.10
2022-12-27T04:26:06.721Z,7.08
2022-12-27T04:28:52.687Z,7.07
2022-12-27T04:31:39.229Z,7.05
2022-12-27T04:34:25.497Z,7.02
2022-12-27T04:36:54.057Z,7.00
2022-12-27T04:39:24.387Z,7.00
2022-12-27T04:42:14.319Z,6.96
2022-12-27T04:45:01.217Z,6.93
2022-12-27T04:47:49.506Z,6.86
2022-12-27T04:50:44.179Z,6.72
2022-12-27T04:53:32.475Z,6.56
2022-12-27T04:56:04.342Z,6.44
2022-12-27T04:58:33.901Z,6.32
2022-12-27T05:01:22.896Z,6.26
2022-12-27T05:03:55.124Z,6.19
2022-12-27T05:06:25.239Z,6.12
2022-12-27T05:09:11.689Z,6.06
2022-12-27T05:11:58.942Z,6.00
2022-12-27T05:14:27.467Z,5.96
2022-12-27T05:16:57.959Z,5.91
2022-12-27T05:19:26.945Z,5.85
2022-12-27T05:22:15.829Z,5.79
2022-12-27T05:25:02.439Z,5.76
2022-12-27T05:27:32.538Z,5.71
2022-12-27T05:30:01.472Z,5.60
2022-12-27T05:32:30.550Z,5.46
2022-12-27T05:34:59.287Z,5.36
2022-12-27T05:37:28.853Z,5.30
2022-12-27T05:39:59.348Z,5.20
2022-12-27T05:42:28.829Z,5.10
2022-12-27T05:45:00.465Z,5.00
2022-12-27T05:47:29.192Z,4.96
2022-12-27T05:49:58.021Z,4.96
2022-12-27T05:52:26.627Z,4.95
2022-12-27T05:54:55.280Z,4.94
2022-12-27T05:57:23.884Z,4.87
2022-12-27T05:59:52.468Z,4.79
2022-12-27T06:02:22.602Z,4.67
2022-12-27T06:04:51.239Z,4.57
2022-12-27T06:07:19.987Z,4.47
2022-12-27T06:09:48.455Z,4.36
2022-12-27T06:12:17.033Z,4.27
2022-12-27T06:14:45.790Z,4.19
2022-12-27T06:17:15.666Z,4.09
2022-12-27T06:19:49.290Z,4.04
2022-12-27T06:22:21.304Z,3.98
2022-12-27T06:24:49.784Z,3.95
2022-12-27T06:27:18.395Z,3.90
2022-12-27T06:29:47.053Z,3.91
2022-12-27T06:32:17.896Z,3.90
2022-12-27T06:34:48.181Z,3.90
2022-12-27T06:37:18.736Z,3.90
2022-12-27T06:39:48.958Z,3.92
2022-12-27T06:42:17.692Z,3.92
2022-12-27T06:44:46.245Z,3.92
2022-12-27T06:47:14.790Z,3.88
2022-12-27T06:49:43.569Z,3.88
2022-12-27T06:52:14.301Z,3.85
2022-12-27T06:54:43.295Z,3.85
2022-12-27T06:57:12.041Z,3.85
2022-12-27T06:59:40.823Z,3.87
2022-12-27T07:02:11.396Z,3.88
2022-12-27T07:04:40.055Z,3.86
2022-12-27T07:07:15.271Z,3.85
2022-12-27T07:09:46.307Z,3.80
2022-12-27T07:12:14.869Z,3.79
2022-12-27T07:14:43.626Z,3.75
2022-12-27T07:17:12.286Z,3.72
2022-12-27T07:19:41.189Z,3.67
2022-12-27T07:22:09.592Z,3.67
2022-12-27T07:24:38.352Z,3.66
2022-12-27T07:27:08.934Z,3.64
2022-12-27T07:29:43.487Z,3.64
2022-12-27T07:32:13.917Z,3.62
2022-12-27T07:34:43.165Z,3.74
2022-12-27T07:37:12.192Z,3.83
2022-12-27T07:39:42.342Z,3.91
2022-12-27T07:42:12.521Z,3.98
2022-12-27T07:44:41.238Z,4.02
2022-12-27T07:47:09.964Z,4.07
2022-12-27T07:49:38.791Z,4.10
2022-12-27T07:52:07.565Z,4.14
2022-12-27T07:54:36.473Z,4.18
2022-12-27T07:57:07.271Z,4.24
2022-12-27T07:59:37.728Z,4.24
2022-12-27T08:02:07.711Z,4.23
2022-12-27T08:04:38.815Z,4.19
2022-12-27T08:07:12.599Z,4.23
2022-12-27T08:09:42.947Z,4.32
2022-12-27T08:12:13.634Z,4.41
2022-12-27T08:14:44.086Z,4.47
2022-12-27T08:17:20.439Z,4.48
2022-12-27T08:19:49.391Z,4.50
2022-12-27T08:22:18.203Z,4.55
2022-12-27T08:24:46.678Z,4.60
2022-12-27T08:27:23.289Z,4.62
2022-12-27T08:30:05.907Z,4.67
2022-12-27T08:32:34.621Z,4.72
2022-12-27T08:35:33.132Z,4.76
2022-12-27T08:37:53.736Z,4.80
2022-12-27T08:40:22.557Z,4.83
2022-12-27T08:42:52.958Z,4.86
2022-12-27T08:45:23.611Z,4.84
2022-12-27T08:47:52.825Z,4.87
2022-12-27T08:50:21.658Z,4.91
2022-12-27T08:52:50.211Z,4.94
2022-12-27T08:55:19.788Z,4.97
2022-12-27T08:57:48.755Z,5.02
2022-12-27T09:00:18.377Z,5.05
2022-12-27T09:02:48.446Z,5.06
2022-12-27T09:05:17.208Z,5.07
2022-12-27T09:07:45.847Z,5.06
2022-12-27T09:10:16.493Z,5.07
2022-12-27T09:12:46.152Z,5.05
2022-12-27T09:15:15.526Z,5.04
2022-12-27T09:17:44.464Z,5.05
2022-12-27T09:20:14.851Z,5.11
2022-12-27T09:22:43.667Z,5.12
2022-12-27T09:25:12.688Z,5.07
2022-12-27T09:27:43.439Z,5.01
2022-12-27T09:30:13.146Z,4.96
2022-12-27T09:32:41.932Z,4.96
2022-12-27T09:35:11.324Z,5.02
2022-12-27T09:37:41.606Z,5.07
2022-12-27T09:40:16.105Z,5.07
2022-12-27T09:43:01.967Z,5.05
2022-12-27T09:45:41.958Z,5.07
2022-12-27T09:48:16.885Z,5.08
2022-12-27T09:50:51.471Z,5.14
2022-12-27T09:53:28.334Z,5.18
2022-12-27T09:55:58.762Z,5.28
2022-12-27T09:58:41.067Z,5.34
2022-12-27T10:01:22.847Z,5.38
2022-12-27T10:03:52.210Z,5.42
2022-12-27T10:06:34.863Z,5.46
2022-12-27T10:09:23.754Z,5.55
2022-12-27T10:12:01.579Z,5.58
2022-12-27T10:14:43.399Z,5.55
2022-12-27T10:17:32.869Z,5.50
2022-12-27T10:20:18.647Z,5.45
2022-12-27T10:22:50.981Z,5.41
2022-12-27T10:25:24.550Z,5.40
2022-12-27T10:27:57.192Z,5.40
2022-12-27T10:30:26.336Z,5.40
2022-12-27T10:32:55.118Z,5.47
2022-12-27T10:35:24.400Z,5.57
2022-12-27T10:37:54.229Z,5.70
2022-12-27T10:40:34.340Z,5.77
2022-12-27T10:43:05.802Z,5.78
2022-12-27T10:45:39.422Z,5.77
2022-12-27T10:48:19.521Z,5.78
2022-12-27T10:50:55.992Z,5.82
2022-12-27T10:53:36.922Z,5.86
2022-12-27T10:56:17.114Z,5.81
2022-12-27T10:58:51.553Z,5.85
2022-12-27T11:01:25.860Z,5.85
2022-12-27T11:04:16.135Z,5.86
2022-12-27T11:06:48.068Z,5.82
2022-12-27T11:09:28.441Z,5.80
2022-12-27T11:15:39.914Z,6.05
2022-12-27T11:18:13.723Z,6.17
2022-12-27T11:21:04.428Z,5.99
2022-12-27T11:26:54.149Z,5.86
2022-12-27T11:29:26.220Z,5.76
2022-12-27T11:31:57.389Z,5.76
2022-12-27T11:34:32.674Z,5.57
2022-12-27T11:37:07.245Z,5.47
2022-12-27T11:39:41.122Z,5.39
2022-12-27T11:42:18.592Z,5.29
2022-12-27T11:44:54.310Z,5.27
2022-12-27T11:47:33.665Z,5.25
2022-12-27T11:50:25.906Z,5.16
2022-12-27T11:53:07.528Z,5.06
2022-12-27T11:55:58.958Z,4.98
2022-12-27T11:59:02.329Z,4.95
2022-12-27T12:02:01.318Z,4.95
2022-12-27T12:05:09.761Z,4.97
2022-12-27T12:08:04.642Z,5.00
2022-12-27T12:10:48.701Z,5.01
2022-12-27T12:13:46.266Z,5.01
2022-12-27T12:16:41.728Z,5.01
2022-12-27T12:19:23.358Z,5.00
2022-12-27T12:22:06.352Z,4.99
2022-12-27T12:25:08.872Z,5.06
2022-12-27T12:27:51.859Z,5.11
2022-12-27T12:30:50.878Z,5.06
2022-12-27T12:33:54.624Z,5.19
2022-12-27T12:36:52.164Z,5.30
2022-12-27T12:39:42.733Z,5.34
2022-12-27T12:42:23.488Z,5.30
2022-12-27T12:45:17.055Z,5.36
2022-12-27T12:48:14.523Z,5.26
2022-12-27T12:51:18.252Z,5.22
2022-12-27T12:54:01.495Z,5.18
2022-12-27T12:56:57.483Z,5.15
2022-12-27T12:59:54.484Z,5.11
2022-12-27T13:02:48.692Z,5.07
2022-12-27T13:05:24.372Z,5.07
2022-12-27T13:08:07.679Z,5.04
2022-12-27T13:10:53.426Z,5.04
2022-12-27T13:13:35.167Z,5.02
2022-12-27T13:16:11.609Z,5.01
2022-12-27T13:18:49.486Z,5.04
2022-12-27T13:21:33.696Z,5.10
2022-12-27T13:24:12.369Z,5.13
2022-12-27T13:26:52.365Z,5.14
2022-12-27T13:29:43.495Z,5.09
2022-12-27T13:32:23.993Z,5.13
2022-12-27T13:35:08.038Z,5.14
2022-12-27T13:37:46.373Z,5.16
2022-12-27T13:40:43.407Z,5.15
2022-12-27T13:43:46.958Z,5.14
2022-12-27T13:46:42.441Z,5.15
2022-12-27T13:49:35.307Z,5.16
2022-12-27T13:52:18.351Z,5.14
2022-12-27T13:55:05.223Z,5.13
2022-12-27T13:58:06.434Z,5.12
2022-12-27T14:00:48.468Z,5.09
2022-12-27T14:03:44.329Z,5.05
2022-12-27T14:06:44.238Z,5.04
2022-12-27T14:09:33.231Z,5.03
2022-12-27T14:12:30.886Z,5.02
2022-12-27T14:15:04.583Z,4.98
2022-12-27T14:17:42.232Z,4.94
2022-12-27T14:20:34.630Z,4.92
2022-12-27T14:23:42.037Z,4.94
2022-12-27T14:26:37.011Z,4.93
2022-12-27T14:29:48.086Z,4.91
2022-12-27T14:32:59.292Z,4.93
2022-12-27T14:36:02.519Z,4.86
2022-12-27T14:39:10.352Z,4.92
2022-12-27T14:42:06.737Z,4.93
2022-12-27T14:45:14.295Z,4.90
2022-12-27T14:48:12.860Z,4.87
2022-12-27T14:51:50.066Z,4.87
2022-12-27T14:54:35.083Z,4.86
2022-12-27T14:57:17.852Z,4.84
2022-12-27T14:59:54.925Z,4.81
2022-12-27T15:02:48.771Z,4.82
2022-12-27T15:05:29.987Z,4.81
2022-12-27T15:08:17.302Z,4.80
2022-12-27T15:11:01.040Z,4.82
2022-12-27T15:13:44.731Z,4.82
2022-12-27T15:16:22.613Z,4.81
2022-12-27T15:19:09.506Z,4.80
2022-12-27T15:21:50.421Z,4.79
2022-12-27T15:24:32.081Z,4.79
2022-12-27T15:27:16.393Z,4.77
2022-12-27T15:30:05.806Z,4.77
2022-12-27T15:32:49.697Z,4.77
2022-12-27T15:35:48.863Z,4.76
2022-12-27T15:38:54.917Z,4.73
2022-12-27T15:41:42.044Z,4.69
2022-12-27T15:45:01.854Z,4.69
2022-12-27T15:47:55.686Z,4.69
2022-12-27T15:50:52.048Z,4.68
2022-12-27T15:53:43.951Z,4.67
2022-12-27T15:56:37.535Z,4.64
2022-12-27T15:59:48.734Z,4.62
2022-12-27T16:02:37.260Z,4.61
2022-12-27T16:05:44.219Z,4.61
2022-12-27T16:08:43.510Z,4.60
2022-12-27T16:11:21.932Z,4.59
2022-12-27T16:14:27.744Z,4.61
2022-12-27T16:17:21.610Z,4.60
2022-12-27T16:20:28.254Z,4.61
2022-12-27T16:23:20.987Z,4.61
2022-12-27T16:25:52.540Z,4.61
2022-12-27T16:28:26.939Z,4.59
2022-12-27T16:31:08.000Z,4.57
2022-12-27T16:33:43.137Z,4.55
2022-12-27T16:36:20.301Z,4.53
2022-12-27T16:38:57.123Z,4.51
2022-12-27T16:41:42.917Z,4.50
2022-12-27T16:44:23.628Z,4.47
2022-12-27T16:47:10.664Z,4.46
2022-12-27T16:50:10.624Z,4.46
2022-12-27T16:53:11.040Z,4.44
2022-12-27T16:56:08.245Z,4.42
2022-12-27T16:58:38.594Z,4.40
2022-12-27T17:01:08.579Z,4.39
2022-12-27T17:03:47.391Z,4.37
2022-12-27T17:06:49.777Z,4.37
2022-12-27T17:09:54.823Z,4.35
2022-12-27T17:12:27.508Z,4.14
2022-12-27T17:15:06.370Z,3.84
2022-12-27T17:17:36.174Z,3.57
2022-12-27T17:20:08.062Z,3.43
2022-12-27T17:22:41.582Z,3.36
2022-12-27T17:25:17.084Z,3.37
2022-12-27T17:28:01.316Z,3.42
2022-12-27T17:30:45.866Z,3.54
2022-12-27T17:33:38.208Z,3.59
2022-12-27T17:36:33.373Z,3.60
2022-12-27T17:39:16.626Z,3.61
2022-12-27T17:42:14.818Z,3.61
2022-12-27T17:44:58.924Z,3.63
2022-12-27T17:47:43.156Z,3.67
2022-12-27T17:50:17.814Z,3.70
2022-12-27T17:53:21.493Z,3.69
2022-12-27T17:56:20.373Z,3.70
2022-12-27T17:58:51.759Z,3.71
2022-12-27T18:01:25.679Z,3.70
2022-12-27T18:03:54.883Z,3.72
2022-12-27T18:06:24.009Z,3.72
2022-12-27T18:08:53.320Z,3.73
2022-12-27T18:11:26.398Z,3.74
2022-12-27T18:13:59.271Z,3.74
2022-12-27T18:16:35.009Z,3.74
2022-12-27T18:19:04.383Z,3.73
2022-12-27T18:21:34.005Z,3.74
2022-12-27T18:24:03.530Z,3.72
2022-12-27T18:26:36.626Z,3.72
2022-12-27T18:29:06.728Z,3.74
2022-12-27T18:31:52.065Z,3.74
2022-12-27T18:34:26.962Z,3.72
2022-12-27T18:37:00.719Z,3.73
2022-12-27T18:39:32.663Z,3.74
2022-12-27T18:42:04.255Z,3.75
2022-12-27T18:44:40.544Z,3.76
2022-12-27T18:47:23.669Z,3.74
2022-12-27T18:49:58.536Z,3.74
2022-12-27T18:52:33.226Z,3.76
2022-12-27T18:55:18.058Z,3.75
2022-12-27T18:57:47.644Z,3.74
2022-12-27T19:00:24.584Z,3.75
2022-12-27T19:02:56.545Z,3.75
2022-12-27T19:05:28.908Z,3.75
2022-12-27T19:08:10.552Z,3.74
2022-12-27T19:10:41.651Z,3.73
2022-12-27T19:13:22.400Z,3.73
2022-12-27T19:15:52.628Z,3.74
2022-12-27T19:18:26.328Z,3.74
2022-12-27T19:20:58.880Z,3.73
2022-12-27T19:23:34.420Z,3.72
2022-12-27T19:26:28.148Z,3.76
2022-12-27T19:29:03.178Z,3.77
2022-12-27T19:31:41.831Z,3.80
2022-12-27T19:34:17.160Z,3.78
2022-12-27T19:36:47.543Z,3.83
2022-12-27T19:39:21.576Z,3.86
2022-12-27T19:42:00.850Z,3.81
2022-12-27T19:44:38.581Z,3.87
2022-12-27T19:47:16.476Z,3.88
2022-12-27T19:49:51.611Z,3.86
2022-12-27T19:52:55.136Z,3.84
2022-12-27T19:55:34.791Z,3.87
2022-12-27T19:58:12.626Z,3.88
2022-12-27T20:00:52.255Z,3.90
2022-12-27T20:03:33.064Z,3.89
2022-12-27T20:06:20.765Z,3.91
2022-12-27T20:08:54.180Z,3.91
2022-12-27T20:11:24.651Z,3.92
2022-12-27T20:13:53.317Z,3.94
2022-12-27T20:16:22.492Z,3.93
2022-12-27T20:18:51.418Z,3.94
2022-12-27T20:21:22.157Z,3.92
2022-12-27T20:23:51.489Z,3.96
2022-12-27T20:26:22.737Z,3.95
2022-12-27T20:28:51.817Z,3.96
2022-12-27T20:31:23.917Z,3.98
2022-12-27T20:33:54.293Z,3.97
2022-12-27T20:36:25.554Z,3.95
2022-12-27T20:38:54.225Z,3.96
2022-12-27T20:41:24.411Z,3.99
2022-12-27T20:43:55.873Z,4.02
2022-12-27T20:46:25.132Z,4.03
2022-12-27T20:48:54.409Z,3.99
2022-12-27T20:51:27.506Z,3.93
2022-12-27T20:53:58.007Z,3.91
2022-12-27T20:56:55.150Z,3.89
2022-12-27T20:59:23.873Z,3.91
2022-12-27T21:01:57.102Z,3.90
2022-12-27T21:04:26.964Z,3.90
2022-12-27T21:06:57.145Z,3.90
2022-12-27T21:09:25.727Z,3.86
2022-12-27T21:11:54.346Z,3.88
2022-12-27T21:14:23.440Z,3.89
2022-12-27T21:16:52.354Z,3.88
2022-12-27T21:19:21.289Z,3.89
2022-12-27T21:21:50.139Z,3.88
2022-12-27T21:24:20.290Z,3.87
2022-12-27T21:26:54.693Z,3.87
2022-12-27T21:29:25.085Z,3.89
2022-12-27T21:31:54.166Z,3.89
2022-12-27T21:34:22.822Z,3.91
2022-12-27T21:36:53.390Z,3.91
2022-12-27T21:39:23.567Z,3.89
2022-12-27T21:41:52.612Z,3.87
2022-12-27T21:44:25.447Z,3.92
2022-12-27T21:46:54.111Z,3.90
2022-12-27T21:49:22.705Z,3.89
2022-12-27T21:51:51.370Z,3.87
2022-12-27T21:54:20.014Z,3.81
2022-12-27T21:56:50.199Z,3.78
2022-12-27T21:59:19.140Z,3.77
2022-12-27T22:01:51.182Z,3.72
2022-12-27T22:04:22.146Z,3.68
2022-12-27T22:06:51.426Z,3.61
2022-12-27T22:09:20.608Z,3.53
2022-12-27T22:11:50.577Z,3.52
2022-12-27T22:14:24.893Z,3.45
2022-12-27T22:16:54.141Z,3.42
2022-12-27T22:19:23.208Z,3.42
2022-12-27T22:21:52.526Z,3.40
2022-12-27T22:24:21.400Z,3.34
2022-12-27T22:26:51.799Z,3.31
2022-12-27T22:29:22.173Z,3.26
2022-12-27T22:31:51.257Z,3.26
2022-12-27T22:34:20.349Z,3.27
2022-12-27T22:36:52.328Z,3.27
2022-12-27T22:39:21.155Z,3.30
2022-12-27T22:41:51.589Z,3.30
2022-12-27T22:44:20.526Z,3.32
2022-12-27T22:49:38.415Z,3.32
2022-12-27T22:52:07.315Z,3.33
2022-12-27T22:55:03.900Z,3.44
2022-12-27T22:57:26.612Z,3.43
2022-12-27T22:59:55.373Z,3.42
2022-12-27T23:02:24.394Z,3.43
2022-12-27T23:04:53.151Z,3.42
2022-12-27T23:08:04.286Z,3.34
2022-12-27T23:10:11.586Z,3.29
2022-12-27T23:12:41.701Z,3.25
2022-12-27T23:15:12.659Z,3.22
2022-12-27T23:17:41.360Z,3.16
2022-12-27T23:20:11.733Z,3.10
2022-12-27T23:22:40.575Z,3.05
2022-12-27T23:25:09.813Z,3.03
2022-12-27T23:27:38.826Z,3.02
2022-12-27T23:30:10.502Z,2.95
2022-12-27T23:32:39.124Z,2.91
2022-12-27T23:35:09.425Z,2.85
2022-12-27T23:37:38.474Z,2.83
2022-12-27T23:40:08.510Z,2.83
2022-12-27T23:42:37.350Z,2.84
2022-12-27T23:45:06.960Z,2.83
2022-12-27T23:47:37.132Z,2.77
2022-12-27T23:50:07.129Z,2.67
2022-12-27T23:52:36.091Z,2.58
2022-12-27T23:55:05.161Z,2.49
2022-12-27T23:57:34.347Z,2.46
